Map

Track Data

SID SEASON NUMBER BASIN SUBBASIN NAME ISO_TIME NATURE LAT LON WMO_WIND WMO_PRES WMO_AGENCY TRACK_TYPE DIST2LAND LANDFALL IFLAG USA_AGENCY USA_ATCF_ID USA_LAT USA_LON USA_RECORD USA_STATUS USA_WIND USA_PRES USA_SSHS USA_R34_NE USA_R34_SE USA_R34_SW USA_R34_NW USA_R50_NE USA_R50_SE USA_R50_SW USA_R50_NW USA_R64_NE USA_R64_SE USA_R64_SW USA_R64_NW USA_POCI USA_ROCI USA_RMW USA_EYE TOKYO_LAT TOKYO_LON TOKYO_GRADE TOKYO_WIND TOKYO_PRES TOKYO_R50_DIR TOKYO_R50_LONG TOKYO_R50_SHORT TOKYO_R30_DIR TOKYO_R30_LONG TOKYO_R30_SHORT TOKYO_LAND CMA_LAT CMA_LON CMA_CAT CMA_WIND CMA_PRES HKO_LAT HKO_LON HKO_CAT HKO_WIND HKO_PRES NEWDELHI_LAT NEWDELHI_LON NEWDELHI_GRADE NEWDELHI_WIND NEWDELHI_PRES NEWDELHI_CI NEWDELHI_DP NEWDELHI_POCI REUNION_LAT REUNION_LON REUNION_TYPE REUNION_WIND REUNION_PRES REUNION_TNUM REUNION_CI REUNION_RMW REUNION_R34_NE REUNION_R34_SE REUNION_R34_SW REUNION_R34_NW REUNION_R50_NE REUNION_R50_SE REUNION_R50_SW REUNION_R50_NW REUNION_R64_NE REUNION_R64_SE REUNION_R64_SW REUNION_R64_NW BOM_LAT BOM_LON BOM_TYPE BOM_WIND BOM_PRES BOM_TNUM BOM_CI BOM_RMW BOM_R34_NE BOM_R34_SE BOM_R34_SW BOM_R34_NW BOM_R50_NE BOM_R50_SE BOM_R50_SW BOM_R50_NW BOM_R64_NE BOM_R64_SE BOM_R64_SW BOM_R64_NW BOM_ROCI BOM_POCI BOM_EYE BOM_POS_METHOD BOM_PRES_METHOD NADI_LAT NADI_LON NADI_CAT NADI_WIND NADI_PRES WELLINGTON_LAT WELLINGTON_LON WELLINGTON_WIND WELLINGTON_PRES DS824_LAT DS824_LON DS824_STAGE DS824_WIND DS824_PRES TD9636_LAT TD9636_LON TD9636_STAGE TD9636_WIND TD9636_PRES TD9635_LAT TD9635_LON TD9635_WIND TD9635_PRES TD9635_ROCI NEUMANN_LAT NEUMANN_LON NEUMANN_CLASS NEUMANN_WIND NEUMANN_PRES MLC_LAT MLC_LON MLC_CLASS MLC_WIND MLC_PRES USA_GUST BOM_GUST BOM_GUST_PER REUNION_GUST REUNION_GUST_PER USA_SEAHGT USA_SEARAD_NE USA_SEARAD_SE USA_SEARAD_SW USA_SEARAD_NW STORM_SPEED STORM_DIR
1886226N15336 1886 25 NA NA NOT_NAMED 1886-08-13 12:00:00 TS 15.0000 -24.0000 main 699 699 _____________O -1 15.0000 -24.0000 TD 30 18 269
1886226N15336 1886 25 NA NA NOT_NAMED 1886-08-13 15:00:00 TS 14.9908 -24.9101 main 796 796 _____________P -1 14.9908 -24.9101 TD 30 17 270
1886226N15336 1886 25 NA NA NOT_NAMED 1886-08-13 18:00:00 TS 15.0000 -25.8000 main 893 893 _____________O -1 15.0000 -25.8000 TD 30 17 272
1886226N15336 1886 25 NA NA NOT_NAMED 1886-08-13 21:00:00 TS 15.0421 -26.6574 main 989 989 _____________P -1 15.0421 -26.6574 TD 30 16 273
1886226N15336 1886 25 NA NA NOT_NAMED 1886-08-14 00:00:00 TS 15.1000 -27.5000 main 1075 1075 _____________O -1 15.1000 -27.5000 TD 30 16 274
1886226N15336 1886 25 NA NA NOT_NAMED 1886-08-14 03:00:00 TS 15.1496 -28.3426 main 1161 1161 _____________P -1 15.1496 -28.3426 TD 30 16 273
1886226N15336 1886 25 NA NA NOT_NAMED 1886-08-14 06:00:00 TS 15.2000 -29.2000 main 1258 1258 _____________O -1 15.2000 -29.2000 TD 30 17 273
1886226N15336 1886 25 NA NA NOT_NAMED 1886-08-14 09:00:00 TS 15.2345 -30.0778 main 1355 1355 _____________P -1 15.2345 -30.0778 TD 35 17 273
1886226N15336 1886 25 NA NA NOT_NAMED 1886-08-14 12:00:00 TS 15.3000 -31.0000 main 1451 1451 _____________O -1 15.3000 -31.0000 TS 40 19 276
1886226N15336 1886 25 NA NA NOT_NAMED 1886-08-14 15:00:00 TS 15.4348 -31.9849 main 1559 1559 _____________P -1 15.4348 -31.9849 TS 40 20 279
1886226N15336 1886 25 NA NA NOT_NAMED 1886-08-14 18:00:00 TS 15.6000 -33.0000 main 1667 1667 _____________O -1 15.6000 -33.0000 TS 40 20 279
1886226N15336 1886 25 NA NA NOT_NAMED 1886-08-14 21:00:00 TS 15.7495 -34.0001 main 1774 1774 _____________P -1 15.7495 -34.0001 TS 42 20 279
1886226N15336 1886 25 NA NA NOT_NAMED 1886-08-15 00:00:00 TS 15.9000 -35.0000 main 1881 1881 _____________O -1 15.9000 -35.0000 TS 45 19 279
1886226N15336 1886 25 NA NA NOT_NAMED 1886-08-15 03:00:00 TS 16.0495 -36.0001 main 1989 1989 _____________P -1 16.0495 -36.0001 TS 45 19 279
1886226N15336 1886 25 NA NA NOT_NAMED 1886-08-15 06:00:00 TS 16.2000 -37.0000 main 2053 1979 _____________O -1 16.2000 -37.0000 TS 45 20 278
1886226N15336 1886 25 NA NA NOT_NAMED 1886-08-15 09:00:00 TS 16.3201 -38.0454 main 1979 1916 _____________P -1 16.3201 -38.0454 TS 45 19 279
1886226N15336 1886 25 NA NA NOT_NAMED 1886-08-15 12:00:00 TS 16.5000 -39.0000 main 1916 1886 _____________O -1 16.5000 -39.0000 TS 45 17 287
1886226N15336 1886 25 NA NA NOT_NAMED 1886-08-15 15:00:00 TS 16.8267 -39.7450 main 1887 1869 _____________P -1 16.8267 -39.7450 TS 45 15 298
1886226N15336 1886 25 NA NA NOT_NAMED 1886-08-15 18:00:00 TS 17.2000 -40.4000 main 1870 1849 _____________O -1 17.2000 -40.4000 TS 45 15 298
1886226N15336 1886 25 NA NA NOT_NAMED 1886-08-15 21:00:00 TS 17.5073 -41.1003 main 1849 1832 _____________P -1 17.5073 -41.1003 TS 45 15 294
1886226N15336 1886 25 NA NA NOT_NAMED 1886-08-16 00:00:00 TS 17.8000 -41.8000 main 1832 1812 _____________O -1 17.8000 -41.8000 TS 45 15 294
1886226N15336 1886 25 NA NA NOT_NAMED 1886-08-16 03:00:00 TS 18.0998 -42.5077 main 1814 1793 _____________P -1 18.0998 -42.5077 TS 45 15 294
1886226N15336 1886 25 NA NA NOT_NAMED 1886-08-16 06:00:00 TS 18.4000 -43.2000 main 1796 1784 _____________O -1 18.4000 -43.2000 TS 45 14 296
1886226N15336 1886 25 NA NA NOT_NAMED 1886-08-16 09:00:00 TS 18.6917 -43.8132 main 1788 1773 _____________P -1 18.6917 -43.8132 TS 45 14 296
1886226N15336 1886 25 NA NA NOT_NAMED 1886-08-16 12:00:00 TS 19.0000 -44.5000 main 1777 1760 _____________O -1 19.0000 -44.5000 TS 45 17 293
1886226N15336 1886 25 NA NA NOT_NAMED 1886-08-16 15:00:00 TS 19.3511 -45.4794 main 1765 1749 _____________P -1 19.3511 -45.4794 TS 45 19 291
1886226N15336 1886 25 NA NA NOT_NAMED 1886-08-16 18:00:00 TS 19.7000 -46.4000 main 1754 1750 _____________O -1 19.7000 -46.4000 TS 45 15 297
1886226N15336 1886 25 NA NA NOT_NAMED 1886-08-16 21:00:00 TS 20.0138 -46.8883 main 1764 1764 _____________P -1 20.0138 -46.8883 TS 50 10 305
1886226N15336 1886 25 NA NA NOT_NAMED 1886-08-17 00:00:00 TS 20.3000 -47.3000 main 1776 1768 _____________O -1 20.3000 -47.3000 TS 55 11 298
1886226N15336 1886 25 NA NA NOT_NAMED 1886-08-17 03:00:00 TS 20.5427 -47.9703 main 1766 1733 _____________P -1 20.5427 -47.9703 TS 57 14 291
1886226N15336 1886 25 NA NA NOT_NAMED 1886-08-17 06:00:00 TS 20.8000 -48.7000 main 1733 1707 _____________O -1 20.8000 -48.7000 TS 60 15 295
1886226N15336 1886 25 NA NA NOT_NAMED 1886-08-17 09:00:00 TS 21.1499 -49.3798 main 1699 1666 _____________P -1 21.1499 -49.3798 TS 60 14 300
1886226N15336 1886 25 NA NA NOT_NAMED 1886-08-17 12:00:00 TS 21.5000 -50.0000 main 1666 1618 _____________O -1 21.5000 -50.0000 TS 60 12 300
1886226N15336 1886 25 NA NA NOT_NAMED 1886-08-17 15:00:00 TS 21.7646 -50.5230 main 1621 1574 _____________P -1 21.7646 -50.5230 TS 60 11 298
1886226N15336 1886 25 NA NA NOT_NAMED 1886-08-17 18:00:00 TS 22.0000 -51.0000 main 1574 1529 _____________O -1 22.0000 -51.0000 TS 60 10 298
1886226N15336 1886 25 NA NA NOT_NAMED 1886-08-17 21:00:00 TS 22.2498 -51.5002 main 1529 1488 _____________P -1 22.2498 -51.5002 TS 62 11 298
1886226N15336 1886 25 NA NA NOT_NAMED 1886-08-18 00:00:00 TS 22.5000 -52.0000 main 1488 1445 _____________O -1 22.5000 -52.0000 HU 65 11 298
1886226N15336 1886 25 NA NA NOT_NAMED 1886-08-18 03:00:00 TS 22.7498 -52.5002 main 1445 1406 _____________P -1 22.7498 -52.5002 HU 65 11 298
1886226N15336 1886 25 NA NA NOT_NAMED 1886-08-18 06:00:00 TS 23.0000 -53.0000 main 1406 1366 _____________O -1 23.0000 -53.0000 HU 65 10 298
1886226N15336 1886 25 NA NA NOT_NAMED 1886-08-18 09:00:00 TS 23.2273 -53.4930 main 1366 1331 _____________P -1 23.2273 -53.4930 HU 65 10 299
1886226N15336 1886 25 NA NA NOT_NAMED 1886-08-18 12:00:00 TS 23.5000 -54.0000 main 1331 1299 _____________O -1 23.5000 -54.0000 HU 65 12 304
1886226N15336 1886 25 NA NA NOT_NAMED 1886-08-18 15:00:00 TS 23.8849 -54.5424 main 1304 1270 _____________P -1 23.8849 -54.5424 HU 65 13 309
1886226N15336 1886 25 NA NA NOT_NAMED 1886-08-18 18:00:00 TS 24.3000 -55.1000 main 1270 1244 _____________O -1 24.3000 -55.1000 HU 65 13 306
1886226N15336 1886 25 NA NA NOT_NAMED 1886-08-18 21:00:00 TS 24.6501 -55.6802 main 1241 1218 _____________P -1 24.6501 -55.6802 HU 65 12 305
1886226N15336 1886 25 NA NA NOT_NAMED 1886-08-19 00:00:00 TS 25.0000 -56.2000 main 1218 1207 _____________O -1 25.0000 -56.2000 HU 65 11 312
1886226N15336 1886 25 NA NA NOT_NAMED 1886-08-19 03:00:00 TS 25.3997 -56.5878 main 1213 1211 _____________P -1 25.3997 -56.5878 HU 65 10 322
1886226N15336 1886 25 NA NA NOT_NAMED 1886-08-19 06:00:00 TS 25.8000 -56.9000 main 1218 1218 _____________O -1 25.8000 -56.9000 HU 65 9 322
1886226N15336 1886 25 NA NA NOT_NAMED 1886-08-19 09:00:00 TS 26.1199 -57.2081 main 1218 1218 _____________P -1 26.1199 -57.2081 HU 65 9 322
1886226N15336 1886 25 NA NA NOT_NAMED 1886-08-19 12:00:00 TS 26.5000 -57.5000 main 1228 1228 _____________O -1 26.5000 -57.5000 HU 65 11 331
1886226N15336 1886 25 NA NA NOT_NAMED 1886-08-19 15:00:00 TS 27.0699 -57.8000 main 1258 1258 _____________P -1 27.0699 -57.8000 HU 65 13 336
1886226N15336 1886 25 NA NA NOT_NAMED 1886-08-19 18:00:00 TS 27.7000 -58.1000 main 1291 1291 _____________O -1 27.7000 -58.1000 HU 65 13 337
1886226N15336 1886 25 NA NA NOT_NAMED 1886-08-19 21:00:00 TS 28.3024 -58.3925 main 1327 1327 _____________P -1 28.3024 -58.3925 HU 65 12 334
1886226N15336 1886 25 NA NA NOT_NAMED 1886-08-20 00:00:00 TS 28.8000 -58.7000 main 1357 1356 _____________O -1 28.8000 -58.7000 HU 65 10 324
1886226N15336 1886 25 NA NA NOT_NAMED 1886-08-20 03:00:00 TS 29.0875 -59.0505 main 1365 1365 _____________P -1 29.0875 -59.0505 HU 65 8 309
1886226N15336 1886 25 NA NA NOT_NAMED 1886-08-20 06:00:00 TS 29.3000 -59.4000 main 1370 1370 _____________O -1 29.3000 -59.4000 HU 65 8 312
1886226N15336 1886 25 NA NA NOT_NAMED 1886-08-20 09:00:00 TS 29.5998 -59.7002 main 1386 1260 _____________P -1 29.5998 -59.7002 HU 65 39 288
1886226N15336 1886 25 NA NA NOT_NAMED 1886-08-20 12:00:00 TS 30.5000 -63.6667 40 hurdat_atl main 1244 1123 O____________O hurdat_atl AL071886 31.7000 -71.0000 TS 40 0 29.9000 -60.0000 HU 65 49 281
1886226N15336 1886 25 NA NA NOT_NAMED 1886-08-20 15:00:00 TS 30.5100 -65.2590 main 1115 1091 P____________P AL071886 30.8700 -70.1679 TS 45 0 30.1500 -60.3502 HU 70 18 261
1886226N15336 1886 25 NA NA NOT_NAMED 1886-08-20 18:00:00 TS 30.2200 -65.6800 50 hurdat_atl main 1104 1104 O____________O hurdat_atl AL071886 30.1000 -69.0000 TS 50 0 30.4000 -60.7000 HU 75 6 176
1886226N15336 1886 25 NA NA NOT_NAMED 1886-08-20 21:00:00 TS 29.8798 -65.2037 main 1163 1163 P____________P AL071886 29.4735 -67.3055 TS 55 0 30.6923 -61.0002 HU 80 14 107
1886226N15336 1886 25 NA NA NOT_NAMED 1886-08-21 00:00:00 TS 29.8000 -64.1000 60 hurdat_atl main 1255 1255 O____________O hurdat_atl AL071886 29.2000 -65.5000 TS 60 0 31.0000 -61.3000 HU 85 18 86
1886226N15336 1886 25 NA NA NOT_NAMED 1886-08-21 03:00:00 TS 30.0067 -63.1561 main 1314 1314 P____________P AL071886 29.3601 -63.9165 TS 67 1 31.2999 -61.6352 HU 92 16 63
1886226N15336 1886 25 NA NA NOT_NAMED 1886-08-21 06:00:00 TS 30.5333 -62.4667 75 hurdat_atl main 1343 1331 O____________O hurdat_atl AL071886 30.0000 -62.7000 HU 75 1 31.6000 -62.0000 MH 100 16 34
1886226N15336 1886 25 NA NA NOT_NAMED 1886-08-21 09:00:00 TS 31.3611 -62.1133 main 1330 1267 P____________P AL071886 31.0952 -61.9402 HU 85 2 31.8928 -62.4595 MH 100 18 11
1886226N15336 1886 25 NA NA NOT_NAMED 1886-08-21 12:00:00 TS 32.2667 -62.0667 95 hurdat_atl main 1258 1196 O____________O hurdat_atl AL071886 32.3000 -61.7000 HU 95 2 32.2000 -62.8000 MH 100 16 357
1886226N15336 1886 25 NA NA NOT_NAMED 1886-08-21 15:00:00 TS 32.9256 -62.2041 main 1196 1125 P____________P AL071886 33.1322 -61.8971 HU 97 3 32.5123 -62.8181 MH 100 13 343
1886226N15336 1886 25 NA NA NOT_NAMED 1886-08-21 18:00:00 TS 33.5000 -62.5000 100 hurdat_atl main 1125 1054 O____________O hurdat_atl AL071886 33.8000 -62.4000 HU 100 3 32.9000 -62.7000 MH 100 962 13 337
1886226N15336 1886 25 NA NA NOT_NAMED 1886-08-21 21:00:00 TS 34.1085 -62.8042 main 1054 992 P____________P AL071886 34.4452 -62.8924 HU 100 3 33.4350 -62.6279 MH 100 962 13 336
1886226N15336 1886 25 NA NA NOT_NAMED 1886-08-22 00:00:00 TS 34.6667 -63.1333 100 hurdat_atl main 983 931 O____________I hurdat_atl AL071886 35.0000 -63.4000 HU 100 3 34.0000 -62.6000 MH 100 962 11 333
1886226N15336 1886 25 NA NA NOT_NAMED 1886-08-22 03:00:00 TS 35.1165 -63.4366 main 931 879 P____________P AL071886 35.4572 -63.8163 HU 100 3 34.4350 -62.6774 MH 100 962 10 331
1886226N15336 1886 25 NA NA NOT_NAMED 1886-08-22 06:00:00 TS 35.5667 -63.7333 100 hurdat_atl main 870 809 O____________O hurdat_atl AL071886 35.9000 -64.2000 HU 100 3 34.9000 -62.8000 MH 100 963 11 335
1886226N15336 1886 25 NA NA NOT_NAMED 1886-08-22 09:00:00 TS 36.1298 -64.0165 main 809 741 P____________P AL071886 36.4347 -64.5857 HU 100 3 35.5199 -62.8781 MH 100 13 337
1886226N15336 1886 25 NA NA NOT_NAMED 1886-08-22 12:00:00 TS 36.7333 -64.3333 100 hurdat_atl main 741 667 O____________O hurdat_atl AL071886 37.0000 -65.0000 HU 100 3 36.2000 -63.0000 MH 100 13 334
1886226N15336 1886 25 NA NA NOT_NAMED 1886-08-22 15:00:00 TS 37.2940 -64.7137 main 667 593 P____________P AL071886 37.5126 -65.4935 HU 97 3 36.8568 -63.1541 MH 97 13 330
1886226N15336 1886 25 NA NA NOT_NAMED 1886-08-22 18:00:00 TS 37.9000 -65.1667 95 hurdat_atl main 588 509 O____________O hurdat_atl AL071886 38.1000 -66.0000 HU 95 2 37.5000 -63.5000 HU 95 15 327
1886226N15336 1886 25 NA NA NOT_NAMED 1886-08-22 21:00:00 TS 38.5688 -65.7637 main 495 416 P____________P AL071886 38.8778 -66.5521 HU 92 2 37.9510 -64.1869 HU 92 17 330
1886226N15336 1886 25 NA NA NOT_NAMED 1886-08-23 00:00:00 TS 39.3667 -66.2667 90 hurdat_atl main 403 331 O____________O hurdat_atl AL071886 39.7000 -66.9000 HU 90 2 38.7000 -65.0000 HU 90 983 19 342
1886226N15336 1886 25 NA NA NOT_NAMED 1886-08-23 03:00:00 TS 40.3904 -66.5306 main 326 242 P____________P AL071886 40.4290 -66.8805 HU 87 2 40.3133 -65.8307 HU 87 20 356
1886226N15336 1886 25 NA NA NOT_NAMED 1886-08-23 06:00:00 TS 41.4000 -66.4667 85 hurdat_atl main 242 159 O____________O hurdat_atl AL071886 41.1000 -66.5000 HU 85 2 42.0000 -66.4000 HU 85 17 10
1886226N15336 1886 25 NA NA NOT_NAMED 1886-08-23 09:00:00 TS 42.1037 -66.1122 main 159 89 P____________P AL071886 41.6683 -65.9250 HU 82 1 42.9744 -66.4865 HU 82 16 32
1886226N15336 1886 25 NA NA NOT_NAMED 1886-08-23 12:00:00 TS 42.7667 -65.3333 80 hurdat_atl main 77 45 O____________O hurdat_atl AL071886 42.3000 -65.0000 HU 80 1 43.7000 -66.0000 HU 80 20 43
1886226N15336 1886 25 NA NA NOT_NAMED 1886-08-23 15:00:00 TS 43.6001 -64.2287 main 52 33 P____________P AL071886 43.1535 -63.7707 HU 77 1 44.4934 -65.1447 HU 77 26 48
1886226N15336 1886 25 NA NA NOT_NAMED 1886-08-23 18:00:00 TS 44.5000 -62.6667 75 hurdat_atl main 23 0 O____________O hurdat_atl AL071886 44.1000 -62.2000 HU 75 1 45.3000 -63.6000 HU 75 31 54
1886226N15336 1886 25 NA NA NOT_NAMED 1886-08-23 21:00:00 TS 45.4152 -60.6773 main 22 7 P____________P AL071886 45.0060 -60.4086 HU 72 1 46.2337 -61.2147 HU 72 34 59
1886226N15336 1886 25 NA NA NOT_NAMED 1886-08-24 00:00:00 TS 46.2667 -58.4333 70 hurdat_atl main 107 30 O____________O hurdat_atl AL071886 45.9000 -58.4000 HU 70 1 47.0000 -58.5000 HU 70 34 63
1886226N15336 1886 25 NA NA NOT_NAMED 1886-08-24 03:00:00 TS 46.9953 -56.2526 main 22 0 P____________P AL071886 46.8162 -56.2746 HU 67 1 47.3535 -56.2087 HU 67 32 66
1886226N15336 1886 25 NA NA NOT_NAMED 1886-08-24 06:00:00 TS 47.6000 -54.1000 65 hurdat_atl main 14 0 O____________O hurdat_atl AL071886 47.6000 -54.1000 HU 65 1 47.6000 -54.1000 HU 65 31 68
1886226N15336 1886 25 NA NA NOT_NAMED 1886-08-24 09:00:00 TS 48.1383 -52.0172 main 59 59 P____________P AL071886 48.1659 -52.0164 HU 62 0 48.0833 -52.0187 HU 62 29 72
1886226N15336 1886 25 NA NA NOT_NAMED 1886-08-24 12:00:00 ET 48.5000 -50.0000 60 hurdat_atl main 210 210 O____________O hurdat_atl AL071886 48.5000 -50.0000 EX 60 -4 48.5000 -50.0000 EX 60 26 80
1886226N15336 1886 25 NA NA NOT_NAMED 1886-08-24 15:00:00 ET 48.6170 -48.0965 main 350 350 P____________P AL071886 48.6170 -48.0965 EX 57 -4 48.6170 -48.0965 EX 57 26 88
1886226N15336 1886 25 NA NA NOT_NAMED 1886-08-24 18:00:00 ET 48.6000 -46.1000 55 hurdat_atl main 495 495 O____________O hurdat_atl AL071886 48.6000 -46.1000 EX 55 -4 48.6000 -46.1000 EX 55 29 91
1886226N15336 1886 25 NA NA NOT_NAMED 1886-08-24 21:00:00 ET 48.5749 -43.7066 main 669 669 P____________P AL071886 48.5749 -43.7066 EX 52 -4 48.5749 -43.7066 EX 52 32 92
1886226N15336 1886 25 NA NA NOT_NAMED 1886-08-25 00:00:00 ET 48.5000 -41.3000 50 hurdat_atl main 843 843 O____________O hurdat_atl AL071886 48.5000 -41.3000 EX 50 -4 48.5000 -41.3000 EX 50 30 94
1886226N15336 1886 25 NA NA NOT_NAMED 1886-08-25 03:00:00 ET 48.3858 -39.2388 main 997 997 P____________P AL071886 48.3858 -39.2388 EX 50 -4 48.3858 -39.2388 EX 50 27 94
1886226N15336 1886 25 NA NA NOT_NAMED 1886-08-25 06:00:00 ET 48.3000 -37.3000 50 hurdat_atl main 1137 1137 O____________O hurdat_atl AL071886 48.3000 -37.3000 EX 50 -4 48.3000 -37.3000 EX 50 26 92
1886226N15336 1886 25 NA NA NOT_NAMED 1886-08-25 09:00:00 ET 48.2824 -35.2868 main 1284 1284 P____________P AL071886 48.2824 -35.2868 EX 50 -4 48.2824 -35.2868 EX 50 27 90
1886226N15336 1886 25 NA NA NOT_NAMED 1886-08-25 12:00:00 ET 48.3000 -33.3000 50 hurdat_atl main 1431 1431 O____________O hurdat_atl AL071886 48.3000 -33.3000 EX 50 -4 48.3000 -33.3000 EX 50 26 89
1886226N15336 1886 25 NA NA NOT_NAMED 1886-08-25 15:00:00 ET 48.3105 -31.3793 main 1506 1412 P____________P AL071886 48.3105 -31.3793 EX 50 -4 48.3105 -31.3793 EX 50 25 90
1886226N15336 1886 25 NA NA NOT_NAMED 1886-08-25 18:00:00 ET 48.3000 -29.5000 50 hurdat_atl main 1405 O____________O hurdat_atl AL071886 48.3000 -29.5000 EX 50 -4 48.3000 -29.5000 EX 50 25 90

About IBTrACS Database

This database is a web-friendly format of International Best Track Archive for Climate Stewardship (IBTrACS), a global best track data archive curated by NOAA dating back to 1842.

Updated: 2021-10-08